VKG048 EKRN-LGSK
Flight info
| Callsign | VKG048 |
|---|---|
| Flight time | 2h 31m |
| Altitude | 35000 |
| Route | DCT ROE L996 DENKO DCT VALPI DCT NIT DCT ALAMU DCT VEBOS DCT TONDO DCT RAXAD DCT SKP DCT |
| Aircraft | A321/M-SDE3FGHIRWY/LB1 |
Departure
| Time | 2026-05-05 11:29 |
|---|---|
| Airport | Bornholm Airport (EKRN) |
Arrival
| Time | 2026-05-05 14:00 |
|---|---|
| Airport | Skiathos Island National Airport (LGSK) |
| Time | Latitude | Longitude | Altitude | Speed | Heading |
|---|---|---|---|---|---|
| 2026-05-05 11:13 | 55.06894 | 14.74812 | 54 ft | 0 kts | 165° |
| 2026-05-05 11:26 | 55.06842 | 14.74852 | 53 ft | 12 kts | 155° |
| 2026-05-05 11:26 | 55.06758 | 14.74851 | 53 ft | 11 kts | 183° |
| 2026-05-05 11:26 | 55.06683 | 14.74845 | 53 ft | 10 kts | 181° |
| 2026-05-05 11:26 | 55.06626 | 14.74812 | 50 ft | 10 kts | 247° |
| 2026-05-05 11:27 | 55.06648 | 14.74702 | 53 ft | 9 kts | 290° |
| 2026-05-05 11:27 | 55.06676 | 14.74587 | 53 ft | 13 kts | 300° |
| 2026-05-05 11:27 | 55.06701 | 14.74484 | 53 ft | 4 kts | 222° |
| 2026-05-05 11:27 | 55.06691 | 14.74498 | 51 ft | 1 kts | 127° |
| 2026-05-05 11:28 | 55.06680 | 14.74552 | 51 ft | 7 kts | 111° |
| 2026-05-05 11:28 | 55.06636 | 14.74737 | 53 ft | 45 kts | 113° |
| 2026-05-05 11:28 | 55.06405 | 14.75651 | 51 ft | 116 kts | 114° |
| 2026-05-05 11:28 | 55.06004 | 14.77232 | 109 ft | 162 kts | 114° |
| 2026-05-05 11:29 | 55.05543 | 14.79003 | 778 ft | 159 kts | 115° |
| 2026-05-05 11:29 | 55.05085 | 14.80755 | 1492 ft | 158 kts | 115° |
| 2026-05-05 11:29 | 55.04499 | 14.82372 | 2085 ft | 162 kts | 139° |
| 2026-05-05 11:29 | 55.03427 | 14.83107 | 2281 ft | 176 kts | 176° |
| 2026-05-05 11:30 | 55.02159 | 14.83202 | 2433 ft | 189 kts | 178° |
| 2026-05-05 11:30 | 55.00823 | 14.83335 | 2585 ft | 199 kts | 177° |
| 2026-05-05 11:30 | 54.99382 | 14.83496 | 2707 ft | 218 kts | 177° |
| 2026-05-05 11:30 | 54.97787 | 14.83680 | 2838 ft | 243 kts | 177° |
| 2026-05-05 11:31 | 54.96037 | 14.83887 | 3283 ft | 258 kts | 177° |
| 2026-05-05 11:31 | 54.94227 | 14.84109 | 4003 ft | 263 kts | 178° |
| 2026-05-05 11:31 | 54.92391 | 14.84337 | 4765 ft | 266 kts | 179° |
| 2026-05-05 11:31 | 54.90537 | 14.84565 | 5517 ft | 268 kts | 179° |
| 2026-05-05 11:32 | 54.88669 | 14.84793 | 6281 ft | 270 kts | 180° |
| 2026-05-05 11:32 | 54.86788 | 14.85018 | 6996 ft | 272 kts | 179° |
| 2026-05-05 11:32 | 54.84919 | 14.85243 | 7676 ft | 274 kts | 179° |
| 2026-05-05 11:32 | 54.83004 | 14.85474 | 8362 ft | 277 kts | 179° |
| 2026-05-05 11:33 | 54.81067 | 14.85711 | 9057 ft | 280 kts | 179° |
| 2026-05-05 11:33 | 54.79123 | 14.86285 | 9730 ft | 286 kts | 172° |
| 2026-05-05 11:33 | 54.77160 | 14.87011 | 10236 ft | 295 kts | 172° |
| 2026-05-05 11:33 | 54.75080 | 14.87775 | 10355 ft | 316 kts | 171° |
| 2026-05-05 11:34 | 54.72857 | 14.88589 | 10489 ft | 337 kts | 171° |
| 2026-05-05 11:34 | 54.70526 | 14.89443 | 10851 ft | 347 kts | 171° |
| 2026-05-05 11:34 | 54.68149 | 14.90319 | 11435 ft | 351 kts | 171° |
| 2026-05-05 11:34 | 54.65787 | 14.91193 | 12034 ft | 354 kts | 171° |
| 2026-05-05 11:35 | 54.63368 | 14.92087 | 12651 ft | 357 kts | 171° |
| 2026-05-05 11:35 | 54.60933 | 14.92985 | 13272 ft | 360 kts | 171° |
| 2026-05-05 11:35 | 54.58473 | 14.93886 | 13889 ft | 362 kts | 172° |
| 2026-05-05 11:35 | 54.56001 | 14.94788 | 14482 ft | 364 kts | 172° |
| 2026-05-05 11:36 | 54.53513 | 14.95693 | 15065 ft | 367 kts | 172° |
| 2026-05-05 11:36 | 54.51006 | 14.96599 | 15653 ft | 369 kts | 172° |
| 2026-05-05 11:36 | 54.48518 | 14.97499 | 16244 ft | 372 kts | 172° |
| 2026-05-05 11:36 | 54.45982 | 14.98417 | 16813 ft | 375 kts | 172° |
| 2026-05-05 11:37 | 54.43420 | 14.99341 | 17367 ft | 377 kts | 172° |
| 2026-05-05 11:37 | 54.40845 | 15.00269 | 17894 ft | 379 kts | 172° |
| 2026-05-05 11:37 | 54.38257 | 15.01213 | 18381 ft | 381 kts | 172° |
| 2026-05-05 11:37 | 54.35658 | 15.02167 | 18825 ft | 383 kts | 172° |
| 2026-05-05 11:38 | 54.33044 | 15.03124 | 19290 ft | 384 kts | 172° |
| 2026-05-05 11:38 | 54.30424 | 15.04073 | 19686 ft | 387 kts | 172° |
| 2026-05-05 11:38 | 54.27785 | 15.05025 | 20104 ft | 389 kts | 173° |
| 2026-05-05 11:38 | 54.25162 | 15.05973 | 20493 ft | 391 kts | 173° |
| 2026-05-05 11:39 | 54.22494 | 15.06933 | 20926 ft | 393 kts | 173° |
| 2026-05-05 11:39 | 54.19815 | 15.07892 | 21365 ft | 394 kts | 173° |
| 2026-05-05 11:39 | 54.17127 | 15.08855 | 21818 ft | 396 kts | 173° |
| 2026-05-05 11:39 | 54.14423 | 15.09809 | 22255 ft | 397 kts | 173° |
| 2026-05-05 11:40 | 54.11713 | 15.10771 | 22680 ft | 398 kts | 173° |
| 2026-05-05 11:40 | 54.08994 | 15.11742 | 23111 ft | 400 kts | 173° |
| 2026-05-05 11:40 | 54.06304 | 15.12701 | 23527 ft | 401 kts | 174° |
| 2026-05-05 11:40 | 54.03566 | 15.13672 | 23861 ft | 403 kts | 173° |
| 2026-05-05 11:41 | 54.00815 | 15.14648 | 24201 ft | 405 kts | 173° |
| 2026-05-05 11:41 | 53.98050 | 15.15622 | 24531 ft | 407 kts | 174° |
| 2026-05-05 11:41 | 53.95269 | 15.16595 | 24844 ft | 408 kts | 174° |
| 2026-05-05 11:41 | 53.92486 | 15.17579 | 25185 ft | 410 kts | 174° |
| 2026-05-05 11:42 | 53.89679 | 15.18567 | 25521 ft | 412 kts | 174° |
| 2026-05-05 11:42 | 53.86868 | 15.19555 | 25861 ft | 414 kts | 174° |
| 2026-05-05 11:42 | 53.84044 | 15.20550 | 26186 ft | 415 kts | 174° |
| 2026-05-05 11:42 | 53.81246 | 15.21533 | 26484 ft | 417 kts | 174° |
| 2026-05-05 11:43 | 53.78400 | 15.22530 | 26793 ft | 419 kts | 174° |
| 2026-05-05 11:43 | 53.75538 | 15.23529 | 27010 ft | 422 kts | 174° |
| 2026-05-05 11:43 | 53.72655 | 15.24535 | 27277 ft | 424 kts | 174° |
| 2026-05-05 11:43 | 53.69757 | 15.25542 | 27557 ft | 426 kts | 174° |
| 2026-05-05 11:44 | 53.66846 | 15.26549 | 27827 ft | 428 kts | 174° |
| 2026-05-05 11:44 | 53.63919 | 15.27562 | 28089 ft | 430 kts | 174° |
| 2026-05-05 11:44 | 53.60984 | 15.28586 | 28375 ft | 432 kts | 174° |
| 2026-05-05 11:44 | 53.58035 | 15.29625 | 28675 ft | 434 kts | 174° |
| 2026-05-05 11:45 | 53.55071 | 15.30671 | 28940 ft | 436 kts | 174° |
| 2026-05-05 11:45 | 53.52096 | 15.31711 | 29194 ft | 438 kts | 174° |
| 2026-05-05 11:45 | 53.49145 | 15.32749 | 29380 ft | 442 kts | 172° |
| 2026-05-05 11:45 | 53.46187 | 15.34339 | 29573 ft | 452 kts | 163° |
| 2026-05-05 11:46 | 53.43318 | 15.36545 | 29895 ft | 454 kts | 161° |
| 2026-05-05 11:46 | 53.40460 | 15.38768 | 30198 ft | 453 kts | 161° |
| 2026-05-05 11:46 | 53.37600 | 15.40981 | 30506 ft | 452 kts | 161° |
| 2026-05-05 11:46 | 53.34739 | 15.43179 | 30825 ft | 452 kts | 161° |
| 2026-05-05 11:47 | 53.31883 | 15.45359 | 31157 ft | 451 kts | 161° |
| 2026-05-05 11:47 | 53.29069 | 15.47502 | 31486 ft | 450 kts | 161° |
| 2026-05-05 11:47 | 53.26221 | 15.49669 | 31820 ft | 449 kts | 161° |
| 2026-05-05 11:47 | 53.23385 | 15.51823 | 32171 ft | 448 kts | 161° |
| 2026-05-05 11:48 | 53.17696 | 15.56137 | 32694 ft | 450 kts | 161° |
| 2026-05-05 11:48 | 53.14846 | 15.58301 | 33003 ft | 450 kts | 161° |
| 2026-05-05 11:48 | 53.12002 | 15.60460 | 33300 ft | 449 kts | 161° |
| 2026-05-05 11:49 | 53.09162 | 15.62618 | 33597 ft | 449 kts | 161° |
| 2026-05-05 11:49 | 53.06361 | 15.64740 | 33886 ft | 448 kts | 161° |
| 2026-05-05 11:49 | 53.03528 | 15.66882 | 34143 ft | 447 kts | 161° |
| 2026-05-05 11:49 | 53.00693 | 15.69020 | 34375 ft | 447 kts | 161° |
| 2026-05-05 11:50 | 52.97861 | 15.71146 | 34600 ft | 447 kts | 161° |
| 2026-05-05 11:50 | 52.95026 | 15.73270 | 34810 ft | 447 kts | 161° |
| 2026-05-05 11:50 | 52.89351 | 15.77518 | 34899 ft | 447 kts | 161° |
| 2026-05-05 11:51 | 52.83733 | 15.81720 | 34899 ft | 446 kts | 161° |
| 2026-05-05 11:51 | 52.78034 | 15.85706 | 34895 ft | 443 kts | 164° |
| 2026-05-05 11:52 | 52.72246 | 15.89161 | 34890 ft | 442 kts | 166° |
| 2026-05-05 11:52 | 52.66435 | 15.92516 | 34876 ft | 442 kts | 166° |
| 2026-05-05 11:53 | 52.60682 | 15.95942 | 34865 ft | 443 kts | 165° |
| 2026-05-05 11:53 | 52.54894 | 15.99438 | 34866 ft | 444 kts | 165° |
| 2026-05-05 11:54 | 52.49096 | 16.02948 | 34874 ft | 444 kts | 165° |
| 2026-05-05 11:54 | 52.44271 | 16.05845 | 34873 ft | 444 kts | 165° |
| 2026-05-05 11:55 | 52.38464 | 16.09312 | 34858 ft | 444 kts | 165° |
| 2026-05-05 11:55 | 52.31703 | 16.13335 | 34862 ft | 445 kts | 165° |
| 2026-05-05 11:56 | 52.26873 | 16.16206 | 34865 ft | 445 kts | 165° |
| 2026-05-05 11:56 | 52.21051 | 16.19670 | 34864 ft | 445 kts | 165° |
| 2026-05-05 11:57 | 52.15221 | 16.23110 | 34880 ft | 447 kts | 165° |
| 2026-05-05 11:57 | 52.09374 | 16.26541 | 34857 ft | 446 kts | 165° |
| 2026-05-05 11:58 | 52.03552 | 16.29973 | 34849 ft | 445 kts | 165° |
| 2026-05-05 11:58 | 51.97770 | 16.33367 | 34848 ft | 445 kts | 165° |
| 2026-05-05 11:59 | 51.91945 | 16.36772 | 34852 ft | 445 kts | 165° |
| 2026-05-05 11:59 | 51.86117 | 16.40161 | 34855 ft | 445 kts | 165° |
| 2026-05-05 12:00 | 51.80297 | 16.43541 | 34852 ft | 444 kts | 165° |
| 2026-05-05 12:00 | 51.74521 | 16.46895 | 34857 ft | 444 kts | 165° |
| 2026-05-05 12:01 | 51.68712 | 16.50263 | 34855 ft | 444 kts | 165° |
| 2026-05-05 12:01 | 51.62899 | 16.53618 | 34855 ft | 444 kts | 165° |
| 2026-05-05 12:02 | 51.57081 | 16.56958 | 34832 ft | 443 kts | 165° |
| 2026-05-05 12:02 | 51.51315 | 16.60253 | 34834 ft | 443 kts | 164° |
| 2026-05-05 12:03 | 51.45514 | 16.63562 | 34831 ft | 443 kts | 164° |
| 2026-05-05 12:03 | 51.39712 | 16.66883 | 34831 ft | 443 kts | 164° |
| 2026-05-05 12:04 | 51.33905 | 16.70202 | 34827 ft | 443 kts | 164° |
| 2026-05-05 12:04 | 51.28139 | 16.73484 | 34825 ft | 442 kts | 164° |
| 2026-05-05 12:05 | 51.22342 | 16.76751 | 34828 ft | 442 kts | 164° |
| 2026-05-05 12:05 | 51.16542 | 16.79997 | 34834 ft | 442 kts | 164° |
| 2026-05-05 12:06 | 51.10743 | 16.83250 | 34817 ft | 442 kts | 164° |
| 2026-05-05 12:06 | 51.04980 | 16.86496 | 34798 ft | 443 kts | 164° |
| 2026-05-05 12:07 | 50.99174 | 16.89767 | 34791 ft | 443 kts | 164° |
| 2026-05-05 12:07 | 50.93362 | 16.93014 | 34799 ft | 443 kts | 164° |
| 2026-05-05 12:08 | 50.87549 | 16.96248 | 34806 ft | 443 kts | 164° |
| 2026-05-05 12:08 | 50.81770 | 16.99445 | 34807 ft | 443 kts | 164° |
| 2026-05-05 12:09 | 50.75956 | 17.02654 | 34807 ft | 442 kts | 164° |
| 2026-05-05 12:09 | 50.70143 | 17.05869 | 34804 ft | 442 kts | 164° |
| 2026-05-05 12:10 | 50.64337 | 17.09077 | 34798 ft | 442 kts | 164° |
| 2026-05-05 12:10 | 50.58527 | 17.12270 | 34803 ft | 442 kts | 164° |
| 2026-05-05 12:11 | 50.52755 | 17.15440 | 34796 ft | 443 kts | 164° |
| 2026-05-05 12:11 | 50.46939 | 17.18624 | 34804 ft | 442 kts | 164° |
| 2026-05-05 12:12 | 50.41127 | 17.21788 | 34820 ft | 442 kts | 164° |
| 2026-05-05 12:12 | 50.35313 | 17.24941 | 34825 ft | 442 kts | 164° |
| 2026-05-05 12:13 | 50.29541 | 17.28063 | 34828 ft | 442 kts | 164° |
| 2026-05-05 12:13 | 50.23731 | 17.31207 | 34828 ft | 441 kts | 164° |
| 2026-05-05 12:14 | 50.17929 | 17.34335 | 34843 ft | 441 kts | 163° |
| 2026-05-05 12:14 | 50.12132 | 17.37460 | 34850 ft | 441 kts | 163° |
| 2026-05-05 12:15 | 50.06373 | 17.40559 | 34852 ft | 441 kts | 164° |
| 2026-05-05 12:15 | 50.00576 | 17.43659 | 34840 ft | 441 kts | 163° |
| 2026-05-05 12:16 | 49.94783 | 17.46747 | 34842 ft | 440 kts | 164° |
| 2026-05-05 12:16 | 49.88985 | 17.49834 | 34843 ft | 440 kts | 163° |
| 2026-05-05 12:17 | 49.83241 | 17.52894 | 34846 ft | 439 kts | 164° |
| 2026-05-05 12:17 | 49.77461 | 17.55959 | 34856 ft | 439 kts | 164° |
| 2026-05-05 12:18 | 49.71691 | 17.59013 | 34858 ft | 438 kts | 164° |
| 2026-05-05 12:18 | 49.65955 | 17.62040 | 34862 ft | 438 kts | 165° |
| 2026-05-05 12:19 | 49.60193 | 17.65067 | 34857 ft | 438 kts | 164° |
| 2026-05-05 12:19 | 49.54421 | 17.68096 | 34856 ft | 438 kts | 164° |
| 2026-05-05 12:20 | 49.48651 | 17.71111 | 34851 ft | 438 kts | 163° |
| 2026-05-05 12:20 | 49.42876 | 17.74120 | 34850 ft | 438 kts | 163° |
| 2026-05-05 12:21 | 49.37138 | 17.77116 | 34855 ft | 439 kts | 163° |
| 2026-05-05 12:21 | 49.31356 | 17.80124 | 34857 ft | 439 kts | 163° |
| 2026-05-05 12:22 | 49.25576 | 17.83120 | 34852 ft | 439 kts | 163° |
| 2026-05-05 12:22 | 49.19788 | 17.86114 | 34854 ft | 439 kts | 164° |
| 2026-05-05 12:23 | 49.14040 | 17.89080 | 34853 ft | 439 kts | 164° |
| 2026-05-05 12:23 | 49.08249 | 17.92062 | 34869 ft | 439 kts | 165° |
| 2026-05-05 12:24 | 49.02438 | 17.94837 | 34877 ft | 436 kts | 172° |
| 2026-05-05 12:24 | 48.96457 | 17.95861 | 34867 ft | 432 kts | 176° |
| 2026-05-05 12:25 | 48.90468 | 17.96671 | 34870 ft | 432 kts | 177° |
| 2026-05-05 12:25 | 48.84506 | 17.97496 | 34879 ft | 433 kts | 178° |
| 2026-05-05 12:26 | 48.78512 | 17.98326 | 34889 ft | 433 kts | 179° |
| 2026-05-05 12:26 | 48.72515 | 17.99150 | 34884 ft | 432 kts | 177° |
| 2026-05-05 12:27 | 48.66525 | 17.99967 | 34877 ft | 433 kts | 177° |
| 2026-05-05 12:27 | 48.60550 | 18.00785 | 34878 ft | 434 kts | 178° |
| 2026-05-05 12:28 | 48.54535 | 18.01613 | 34882 ft | 434 kts | 178° |
| 2026-05-05 12:28 | 48.48518 | 18.02423 | 34891 ft | 434 kts | 177° |
| 2026-05-05 12:29 | 48.42508 | 18.03236 | 34894 ft | 434 kts | 176° |
| 2026-05-05 12:29 | 48.36488 | 18.04051 | 34894 ft | 435 kts | 178° |
| 2026-05-05 12:30 | 48.30512 | 18.04887 | 34892 ft | 435 kts | 175° |
| 2026-05-05 12:30 | 48.24640 | 18.07297 | 34895 ft | 440 kts | 163° |
| 2026-05-05 12:31 | 48.18843 | 18.10257 | 34902 ft | 440 kts | 164° |
| 2026-05-05 12:31 | 48.13074 | 18.13191 | 34906 ft | 441 kts | 163° |
| 2026-05-05 12:32 | 48.07266 | 18.16137 | 34900 ft | 441 kts | 165° |
| 2026-05-05 12:32 | 48.01454 | 18.19068 | 34909 ft | 441 kts | 163° |
| 2026-05-05 12:33 | 47.95643 | 18.21990 | 34917 ft | 441 kts | 164° |
| 2026-05-05 12:33 | 47.89825 | 18.24916 | 34924 ft | 441 kts | 163° |
| 2026-05-05 12:34 | 47.84040 | 18.27818 | 34926 ft | 441 kts | 163° |
| 2026-05-05 12:34 | 47.78222 | 18.30732 | 34928 ft | 441 kts | 163° |
| 2026-05-05 12:35 | 47.72457 | 18.33870 | 34945 ft | 443 kts | 156° |
| 2026-05-05 12:35 | 47.66912 | 18.37876 | 34939 ft | 443 kts | 156° |
| 2026-05-05 12:36 | 47.61390 | 18.41831 | 34947 ft | 443 kts | 157° |
| 2026-05-05 12:36 | 47.55843 | 18.45811 | 34943 ft | 443 kts | 157° |
| 2026-05-05 12:37 | 47.50289 | 18.49786 | 34946 ft | 443 kts | 158° |
| 2026-05-05 12:37 | 47.44727 | 18.53741 | 34949 ft | 444 kts | 158° |
| 2026-05-05 12:38 | 47.39199 | 18.57655 | 34954 ft | 444 kts | 157° |
| 2026-05-05 12:38 | 47.33633 | 18.61602 | 34954 ft | 444 kts | 156° |
| 2026-05-05 12:39 | 47.28033 | 18.65428 | 34952 ft | 443 kts | 159° |
| 2026-05-05 12:39 | 47.22349 | 18.68752 | 34958 ft | 442 kts | 162° |
| 2026-05-05 12:40 | 47.16587 | 18.71944 | 34957 ft | 442 kts | 161° |
| 2026-05-05 12:40 | 47.10850 | 18.75213 | 34958 ft | 443 kts | 160° |
| 2026-05-05 12:41 | 47.05126 | 18.78556 | 34956 ft | 443 kts | 160° |
| 2026-05-05 12:41 | 46.99433 | 18.81875 | 34954 ft | 443 kts | 161° |
| 2026-05-05 12:42 | 46.93691 | 18.85191 | 34964 ft | 443 kts | 161° |
| 2026-05-05 12:42 | 46.87950 | 18.88493 | 34965 ft | 444 kts | 161° |
| 2026-05-05 12:43 | 46.82206 | 18.91782 | 34962 ft | 444 kts | 161° |
| 2026-05-05 12:43 | 46.76454 | 18.95077 | 34965 ft | 444 kts | 160° |
| 2026-05-05 12:44 | 46.70741 | 18.98354 | 34967 ft | 444 kts | 161° |
| 2026-05-05 12:44 | 46.64985 | 19.01644 | 34963 ft | 444 kts | 160° |
| 2026-05-05 12:45 | 46.59227 | 19.04920 | 34961 ft | 444 kts | 160° |
| 2026-05-05 12:45 | 46.53464 | 19.08184 | 34966 ft | 445 kts | 161° |
| 2026-05-05 12:46 | 46.47735 | 19.11429 | 34963 ft | 445 kts | 161° |
| 2026-05-05 12:46 | 46.41964 | 19.14696 | 34966 ft | 445 kts | 160° |
| 2026-05-05 12:47 | 46.36186 | 19.17961 | 34964 ft | 446 kts | 161° |
| 2026-05-05 12:47 | 46.30405 | 19.21213 | 34963 ft | 446 kts | 160° |
| 2026-05-05 12:48 | 46.24617 | 19.24454 | 34967 ft | 446 kts | 160° |
| 2026-05-05 12:48 | 46.18863 | 19.27676 | 34970 ft | 446 kts | 160° |
| 2026-05-05 12:49 | 46.13073 | 19.30917 | 34969 ft | 447 kts | 161° |
| 2026-05-05 12:49 | 46.07268 | 19.34155 | 34963 ft | 447 kts | 161° |
| 2026-05-05 12:50 | 46.01714 | 19.38077 | 34960 ft | 450 kts | 151° |
| 2026-05-05 12:50 | 45.96291 | 19.42592 | 34963 ft | 450 kts | 152° |
| 2026-05-05 12:51 | 45.90861 | 19.47080 | 34966 ft | 451 kts | 152° |
| 2026-05-05 12:51 | 45.85420 | 19.51561 | 34968 ft | 451 kts | 152° |
| 2026-05-05 12:52 | 45.79973 | 19.56044 | 34964 ft | 452 kts | 152° |
| 2026-05-05 12:52 | 45.74558 | 19.60505 | 34979 ft | 452 kts | 152° |
| 2026-05-05 12:53 | 45.69101 | 19.64985 | 34983 ft | 452 kts | 152° |
| 2026-05-05 12:53 | 45.63640 | 19.69448 | 34959 ft | 452 kts | 152° |
| 2026-05-05 12:54 | 45.55427 | 19.76139 | 34967 ft | 454 kts | 152° |
| 2026-05-05 12:55 | 45.49981 | 19.80581 | 34974 ft | 454 kts | 152° |
| 2026-05-05 12:55 | 45.44497 | 19.85047 | 34979 ft | 454 kts | 152° |
| 2026-05-05 12:56 | 45.39001 | 19.89497 | 34977 ft | 455 kts | 152° |
| 2026-05-05 12:56 | 45.33492 | 19.93940 | 34976 ft | 455 kts | 152° |
| 2026-05-05 12:57 | 45.28016 | 19.98351 | 34978 ft | 456 kts | 152° |
| 2026-05-05 12:57 | 45.22499 | 20.02791 | 34987 ft | 456 kts | 152° |
| 2026-05-05 12:58 | 45.16982 | 20.07225 | 34972 ft | 456 kts | 152° |
| 2026-05-05 12:58 | 45.11487 | 20.11628 | 34972 ft | 457 kts | 152° |
| 2026-05-05 12:59 | 45.05943 | 20.16048 | 34976 ft | 458 kts | 152° |
| 2026-05-05 12:59 | 45.00390 | 20.20472 | 34982 ft | 458 kts | 152° |
| 2026-05-05 13:00 | 44.92058 | 20.27107 | 34997 ft | 459 kts | 152° |
| 2026-05-05 13:01 | 44.80971 | 20.35898 | 35007 ft | 459 kts | 152° |
| 2026-05-05 13:01 | 44.75402 | 20.40282 | 35006 ft | 459 kts | 152° |
| 2026-05-05 13:02 | 44.69832 | 20.44660 | 34994 ft | 459 kts | 152° |
| 2026-05-05 13:02 | 44.64255 | 20.49040 | 34996 ft | 460 kts | 152° |
| 2026-05-05 13:03 | 44.58711 | 20.53394 | 34997 ft | 460 kts | 152° |
| 2026-05-05 13:03 | 44.53121 | 20.57774 | 34996 ft | 460 kts | 152° |
| 2026-05-05 13:04 | 44.47525 | 20.62144 | 34993 ft | 461 kts | 152° |
| 2026-05-05 13:04 | 44.41917 | 20.66511 | 34990 ft | 461 kts | 152° |
| 2026-05-05 13:05 | 44.36342 | 20.70844 | 34989 ft | 462 kts | 152° |
| 2026-05-05 13:05 | 44.30711 | 20.75204 | 34994 ft | 463 kts | 152° |
| 2026-05-05 13:06 | 44.25084 | 20.79568 | 34995 ft | 463 kts | 152° |
| 2026-05-05 13:06 | 44.19448 | 20.83926 | 34990 ft | 463 kts | 152° |
| 2026-05-05 13:07 | 44.13841 | 20.88246 | 34994 ft | 464 kts | 152° |
| 2026-05-05 13:07 | 44.08186 | 20.92589 | 34992 ft | 465 kts | 152° |
| 2026-05-05 13:08 | 44.02523 | 20.96932 | 34999 ft | 465 kts | 152° |
| 2026-05-05 13:08 | 43.96852 | 21.01267 | 34990 ft | 465 kts | 153° |
| 2026-05-05 13:09 | 43.91176 | 21.05599 | 34990 ft | 466 kts | 153° |
| 2026-05-05 13:09 | 43.85525 | 21.09902 | 35000 ft | 467 kts | 152° |
| 2026-05-05 13:10 | 43.79834 | 21.14231 | 35000 ft | 467 kts | 152° |
| 2026-05-05 13:10 | 43.74133 | 21.18567 | 34993 ft | 467 kts | 152° |
| 2026-05-05 13:11 | 43.68424 | 21.22887 | 34995 ft | 468 kts | 153° |
| 2026-05-05 13:11 | 43.62748 | 21.27168 | 35005 ft | 468 kts | 152° |
| 2026-05-05 13:12 | 43.57025 | 21.31483 | 35002 ft | 469 kts | 152° |
| 2026-05-05 13:12 | 43.51296 | 21.35794 | 34991 ft | 470 kts | 153° |
| 2026-05-05 13:13 | 43.45555 | 21.40102 | 34997 ft | 470 kts | 152° |
| 2026-05-05 13:13 | 43.39848 | 21.44382 | 35006 ft | 470 kts | 153° |
| 2026-05-05 13:14 | 43.34092 | 21.48673 | 35004 ft | 471 kts | 152° |
| 2026-05-05 13:14 | 43.28327 | 21.52963 | 35002 ft | 472 kts | 153° |
| 2026-05-05 13:15 | 43.22557 | 21.57264 | 35011 ft | 472 kts | 153° |
| 2026-05-05 13:15 | 43.16821 | 21.61530 | 35014 ft | 473 kts | 153° |
| 2026-05-05 13:16 | 43.11033 | 21.65815 | 35019 ft | 473 kts | 153° |
| 2026-05-05 13:16 | 43.05244 | 21.70085 | 35009 ft | 473 kts | 153° |
| 2026-05-05 13:17 | 42.99454 | 21.74357 | 35011 ft | 473 kts | 153° |
| 2026-05-05 13:17 | 42.93696 | 21.78600 | 35022 ft | 473 kts | 153° |
| 2026-05-05 13:18 | 42.87900 | 21.82850 | 35030 ft | 473 kts | 153° |
| 2026-05-05 13:18 | 42.82095 | 21.87108 | 35016 ft | 474 kts | 153° |
| 2026-05-05 13:19 | 42.76274 | 21.91366 | 35014 ft | 475 kts | 153° |
| 2026-05-05 13:19 | 42.70448 | 21.95612 | 35018 ft | 475 kts | 153° |
| 2026-05-05 13:20 | 42.64652 | 21.99830 | 35022 ft | 476 kts | 153° |
| 2026-05-05 13:20 | 42.58811 | 22.04070 | 35031 ft | 476 kts | 153° |
| 2026-05-05 13:21 | 42.52970 | 22.08300 | 35034 ft | 476 kts | 153° |
| 2026-05-05 13:21 | 42.47122 | 22.12531 | 35043 ft | 476 kts | 153° |
| 2026-05-05 13:22 | 42.41309 | 22.16729 | 35037 ft | 477 kts | 153° |
| 2026-05-05 13:22 | 42.35453 | 22.20962 | 35034 ft | 478 kts | 153° |
| 2026-05-05 13:23 | 42.29488 | 22.24916 | 35033 ft | 476 kts | 162° |
| 2026-05-05 13:23 | 42.23216 | 22.27795 | 35035 ft | 476 kts | 163° |
| 2026-05-05 13:24 | 42.16938 | 22.30667 | 35033 ft | 477 kts | 163° |
| 2026-05-05 13:24 | 42.10692 | 22.33537 | 35031 ft | 478 kts | 163° |
| 2026-05-05 13:25 | 42.07553 | 22.34978 | 35176 ft | 478 kts | 163° |
| 2026-05-05 13:25 | 42.04396 | 22.36422 | 34871 ft | 479 kts | 163° |
| 2026-05-05 13:25 | 42.01239 | 22.37865 | 34578 ft | 479 kts | 163° |
| 2026-05-05 13:25 | 41.98087 | 22.39304 | 34287 ft | 479 kts | 163° |
| 2026-05-05 13:26 | 41.94925 | 22.40748 | 34000 ft | 480 kts | 163° |
| 2026-05-05 13:26 | 41.91761 | 22.42190 | 33670 ft | 481 kts | 163° |
| 2026-05-05 13:26 | 41.88632 | 22.43614 | 33354 ft | 481 kts | 163° |
| 2026-05-05 13:26 | 41.85463 | 22.45054 | 33068 ft | 481 kts | 163° |
| 2026-05-05 13:27 | 41.79109 | 22.47938 | 33038 ft | 484 kts | 163° |
| 2026-05-05 13:27 | 41.72728 | 22.50831 | 33041 ft | 485 kts | 163° |
| 2026-05-05 13:28 | 41.66325 | 22.53739 | 33033 ft | 486 kts | 163° |
| 2026-05-05 13:28 | 41.59925 | 22.56634 | 33034 ft | 486 kts | 163° |
| 2026-05-05 13:29 | 41.53561 | 22.59497 | 33023 ft | 486 kts | 163° |
| 2026-05-05 13:29 | 41.47148 | 22.62377 | 33030 ft | 486 kts | 163° |
| 2026-05-05 13:30 | 41.40727 | 22.65254 | 33027 ft | 487 kts | 163° |
| 2026-05-05 13:30 | 41.34306 | 22.68129 | 33027 ft | 487 kts | 163° |
| 2026-05-05 13:31 | 41.27876 | 22.70995 | 33016 ft | 488 kts | 163° |
| 2026-05-05 13:31 | 41.21479 | 22.73849 | 32834 ft | 490 kts | 163° |
| 2026-05-05 13:32 | 41.18261 | 22.75283 | 32400 ft | 486 kts | 163° |
| 2026-05-05 13:32 | 41.15072 | 22.76699 | 31992 ft | 482 kts | 163° |
| 2026-05-05 13:32 | 41.11903 | 22.78105 | 31580 ft | 479 kts | 163° |
| 2026-05-05 13:32 | 41.08752 | 22.79503 | 31185 ft | 477 kts | 163° |
| 2026-05-05 13:33 | 41.05616 | 22.80894 | 30788 ft | 474 kts | 163° |
| 2026-05-05 13:33 | 41.02494 | 22.82279 | 30395 ft | 471 kts | 163° |
| 2026-05-05 13:33 | 40.99438 | 22.83634 | 30011 ft | 468 kts | 163° |
| 2026-05-05 13:33 | 40.96353 | 22.84998 | 29553 ft | 465 kts | 163° |
| 2026-05-05 13:34 | 40.93295 | 22.86349 | 29103 ft | 462 kts | 163° |
| 2026-05-05 13:34 | 40.90254 | 22.87688 | 28672 ft | 459 kts | 163° |
| 2026-05-05 13:34 | 40.87225 | 22.89022 | 28226 ft | 457 kts | 163° |
| 2026-05-05 13:34 | 40.84219 | 22.90346 | 27806 ft | 454 kts | 163° |
| 2026-05-05 13:35 | 40.81229 | 22.91662 | 27378 ft | 451 kts | 163° |
| 2026-05-05 13:35 | 40.78257 | 22.92964 | 26974 ft | 449 kts | 163° |
| 2026-05-05 13:35 | 40.75345 | 22.94240 | 26571 ft | 446 kts | 163° |
| 2026-05-05 13:35 | 40.72413 | 22.95527 | 26168 ft | 443 kts | 162° |
| 2026-05-05 13:36 | 40.69497 | 22.96806 | 25818 ft | 441 kts | 162° |
| 2026-05-05 13:36 | 40.66593 | 22.98077 | 25455 ft | 438 kts | 163° |
| 2026-05-05 13:36 | 40.63705 | 22.99341 | 25065 ft | 437 kts | 162° |
| 2026-05-05 13:36 | 40.60827 | 23.00600 | 24681 ft | 435 kts | 162° |
| 2026-05-05 13:37 | 40.57965 | 23.01852 | 24296 ft | 432 kts | 162° |
| 2026-05-05 13:37 | 40.55119 | 23.03093 | 23939 ft | 430 kts | 162° |
| 2026-05-05 13:37 | 40.52289 | 23.04324 | 23564 ft | 427 kts | 162° |
| 2026-05-05 13:37 | 40.49517 | 23.05530 | 23143 ft | 424 kts | 162° |
| 2026-05-05 13:38 | 40.46729 | 23.06745 | 22704 ft | 421 kts | 162° |
| 2026-05-05 13:38 | 40.43965 | 23.07950 | 22286 ft | 417 kts | 162° |
| 2026-05-05 13:38 | 40.41221 | 23.09146 | 21863 ft | 413 kts | 162° |
| 2026-05-05 13:38 | 40.38504 | 23.10325 | 21453 ft | 410 kts | 162° |
| 2026-05-05 13:39 | 40.35807 | 23.11489 | 21060 ft | 407 kts | 162° |
| 2026-05-05 13:39 | 40.33130 | 23.12643 | 20659 ft | 404 kts | 162° |
| 2026-05-05 13:39 | 40.30471 | 23.13793 | 20265 ft | 401 kts | 162° |
| 2026-05-05 13:39 | 40.27870 | 23.14920 | 19881 ft | 398 kts | 161° |
| 2026-05-05 13:40 | 40.25252 | 23.16052 | 19503 ft | 394 kts | 161° |
| 2026-05-05 13:40 | 40.22664 | 23.17174 | 19124 ft | 391 kts | 161° |
| 2026-05-05 13:40 | 40.20091 | 23.18288 | 18772 ft | 387 kts | 161° |
| 2026-05-05 13:40 | 40.17541 | 23.19389 | 18419 ft | 384 kts | 161° |
| 2026-05-05 13:41 | 40.15018 | 23.20472 | 18032 ft | 381 kts | 161° |
| 2026-05-05 13:41 | 40.12510 | 23.21543 | 17629 ft | 378 kts | 161° |
| 2026-05-05 13:41 | 40.10022 | 23.22607 | 17242 ft | 375 kts | 161° |
| 2026-05-05 13:41 | 40.07585 | 23.23653 | 16859 ft | 372 kts | 161° |
| 2026-05-05 13:42 | 40.05134 | 23.24708 | 16474 ft | 370 kts | 161° |
| 2026-05-05 13:42 | 40.02696 | 23.25754 | 16095 ft | 367 kts | 161° |
| 2026-05-05 13:42 | 40.00279 | 23.26789 | 15722 ft | 365 kts | 161° |
| 2026-05-05 13:42 | 39.97876 | 23.27820 | 15342 ft | 362 kts | 161° |
| 2026-05-05 13:43 | 39.95487 | 23.28842 | 14980 ft | 360 kts | 161° |
| 2026-05-05 13:43 | 39.93117 | 23.29855 | 14620 ft | 357 kts | 161° |
| 2026-05-05 13:43 | 39.90764 | 23.30860 | 14266 ft | 355 kts | 161° |
| 2026-05-05 13:43 | 39.88425 | 23.31862 | 13905 ft | 352 kts | 161° |
| 2026-05-05 13:44 | 39.86107 | 23.32858 | 13519 ft | 350 kts | 161° |
| 2026-05-05 13:44 | 39.83838 | 23.33833 | 13124 ft | 347 kts | 161° |
| 2026-05-05 13:44 | 39.81548 | 23.34811 | 12727 ft | 345 kts | 161° |
| 2026-05-05 13:44 | 39.79272 | 23.35777 | 12336 ft | 342 kts | 161° |
| 2026-05-05 13:45 | 39.77014 | 23.36734 | 11967 ft | 340 kts | 161° |
| 2026-05-05 13:45 | 39.74772 | 23.37685 | 11593 ft | 338 kts | 161° |
| 2026-05-05 13:45 | 39.72543 | 23.38633 | 11218 ft | 336 kts | 161° |
| 2026-05-05 13:45 | 39.70333 | 23.39573 | 10850 ft | 334 kts | 161° |
| 2026-05-05 13:46 | 39.68132 | 23.40504 | 10486 ft | 331 kts | 161° |
| 2026-05-05 13:46 | 39.65988 | 23.41411 | 10112 ft | 314 kts | 161° |
| 2026-05-05 13:46 | 39.63981 | 23.42262 | 9745 ft | 304 kts | 161° |
| 2026-05-05 13:46 | 39.61987 | 23.43106 | 9358 ft | 300 kts | 161° |
| 2026-05-05 13:47 | 39.60006 | 23.43942 | 8967 ft | 299 kts | 160° |
| 2026-05-05 13:47 | 39.58037 | 23.44776 | 8583 ft | 297 kts | 160° |
| 2026-05-05 13:47 | 39.56077 | 23.45606 | 8198 ft | 295 kts | 161° |
| 2026-05-05 13:47 | 39.54133 | 23.46427 | 7821 ft | 293 kts | 161° |
| 2026-05-05 13:48 | 39.52184 | 23.47248 | 7453 ft | 294 kts | 161° |
| 2026-05-05 13:48 | 39.50244 | 23.48065 | 7081 ft | 292 kts | 161° |
| 2026-05-05 13:48 | 39.48342 | 23.48869 | 6729 ft | 290 kts | 161° |
| 2026-05-05 13:48 | 39.46429 | 23.49678 | 6364 ft | 289 kts | 161° |
| 2026-05-05 13:49 | 39.44526 | 23.50481 | 5978 ft | 287 kts | 161° |
| 2026-05-05 13:49 | 39.42629 | 23.51282 | 5603 ft | 286 kts | 162° |
| 2026-05-05 13:49 | 39.40744 | 23.52078 | 5228 ft | 284 kts | 162° |
| 2026-05-05 13:49 | 39.38869 | 23.52869 | 4856 ft | 283 kts | 162° |
| 2026-05-05 13:50 | 39.37000 | 23.53655 | 4469 ft | 282 kts | 162° |
| 2026-05-05 13:50 | 39.35143 | 23.54435 | 4103 ft | 280 kts | 162° |
| 2026-05-05 13:50 | 39.33336 | 23.55192 | 3988 ft | 261 kts | 162° |
| 2026-05-05 13:50 | 39.31672 | 23.55890 | 4010 ft | 248 kts | 162° |
| 2026-05-05 13:51 | 39.30047 | 23.56571 | 4039 ft | 250 kts | 162° |
| 2026-05-05 13:51 | 39.28403 | 23.57262 | 4010 ft | 248 kts | 162° |
| 2026-05-05 13:51 | 39.26762 | 23.57950 | 4010 ft | 248 kts | 162° |
| 2026-05-05 13:51 | 39.25120 | 23.58636 | 4010 ft | 248 kts | 162° |
| 2026-05-05 13:52 | 39.23479 | 23.59323 | 4009 ft | 248 kts | 162° |
| 2026-05-05 13:52 | 39.21837 | 23.60011 | 4009 ft | 248 kts | 162° |
| 2026-05-05 13:52 | 39.20202 | 23.60683 | 3878 ft | 245 kts | 166° |
| 2026-05-05 13:52 | 39.18548 | 23.60948 | 3705 ft | 233 kts | 183° |
| 2026-05-05 13:53 | 39.17001 | 23.60687 | 3569 ft | 216 kts | 197° |
| 2026-05-05 13:53 | 39.15666 | 23.60040 | 3377 ft | 201 kts | 209° |
| 2026-05-05 13:53 | 39.14437 | 23.59231 | 2887 ft | 198 kts | 210° |
| 2026-05-05 13:53 | 39.13213 | 23.58428 | 2380 ft | 197 kts | 210° |
| 2026-05-05 13:54 | 39.11999 | 23.57632 | 2035 ft | 195 kts | 209° |
| 2026-05-05 13:54 | 39.10787 | 23.56839 | 2008 ft | 196 kts | 209° |
| 2026-05-05 13:54 | 39.09571 | 23.56043 | 2006 ft | 196 kts | 209° |
| 2026-05-05 13:54 | 39.08353 | 23.55247 | 2009 ft | 196 kts | 209° |
| 2026-05-05 13:55 | 39.07136 | 23.54452 | 2008 ft | 196 kts | 209° |
| 2026-05-05 13:55 | 39.05918 | 23.53658 | 2011 ft | 196 kts | 209° |
| 2026-05-05 13:55 | 39.04717 | 23.52875 | 2016 ft | 196 kts | 209° |
| 2026-05-05 13:55 | 39.03501 | 23.52080 | 2015 ft | 196 kts | 209° |
| 2026-05-05 13:56 | 39.02422 | 23.51050 | 2005 ft | 192 kts | 235° |
| 2026-05-05 13:56 | 39.01977 | 23.49479 | 2014 ft | 188 kts | 269° |
| 2026-05-05 13:56 | 39.02284 | 23.47883 | 2013 ft | 185 kts | 301° |
| 2026-05-05 13:56 | 39.03211 | 23.46770 | 2013 ft | 185 kts | 332° |
| 2026-05-05 13:57 | 39.04469 | 23.46483 | 2016 ft | 188 kts | 4° |
| 2026-05-05 13:57 | 39.05733 | 23.46822 | 2017 ft | 188 kts | 11° |
| 2026-05-05 13:57 | 39.07011 | 23.47170 | 1999 ft | 188 kts | 7° |
| 2026-05-05 13:57 | 39.08304 | 23.47288 | 2023 ft | 186 kts | 359° |
| 2026-05-05 13:58 | 39.09601 | 23.47303 | 2115 ft | 183 kts | 0° |
| 2026-05-05 13:58 | 39.10769 | 23.47425 | 1963 ft | 160 kts | 6° |
| 2026-05-05 13:58 | 39.11831 | 23.47752 | 1515 ft | 156 kts | 16° |
| 2026-05-05 13:58 | 39.12853 | 23.48181 | 1102 ft | 153 kts | 17° |
| 2026-05-05 13:59 | 39.14783 | 23.49044 | 613 ft | 145 kts | 19° |
| 2026-05-05 13:59 | 39.15734 | 23.49472 | 386 ft | 145 kts | 19° |
| 2026-05-05 14:00 | 39.17572 | 23.50302 | 54 ft | 120 kts | 19° |
| 2026-05-05 14:00 | 39.17951 | 23.50472 | 61 ft | 44 kts | 19° |
| 2026-05-05 14:00 | 39.18294 | 23.50625 | 68 ft | 30 kts | 18° |
| 2026-05-05 14:00 | 39.18423 | 23.50682 | 73 ft | 5 kts | 19° |
| 2026-05-05 14:01 | 39.18462 | 23.50688 | 71 ft | 8 kts | 350° |
| 2026-05-05 14:01 | 39.18478 | 23.50706 | 73 ft | 2 kts | 138° |
| 2026-05-05 14:01 | 39.18377 | 23.50664 | 74 ft | 22 kts | 198° |
| 2026-05-05 14:01 | 39.18236 | 23.50602 | 73 ft | 21 kts | 200° |
| 2026-05-05 14:02 | 39.18105 | 23.50541 | 68 ft | 20 kts | 199° |
| 2026-05-05 14:02 | 39.17995 | 23.50493 | 63 ft | 16 kts | 202° |
| 2026-05-05 14:02 | 39.17948 | 23.50393 | 65 ft | 11 kts | 256° |
| 2026-05-05 14:02 | 39.17916 | 23.50322 | 63 ft | 5 kts | 213° |
| 2026-05-05 14:03 | 39.17899 | 23.50310 | 60 ft | 3 kts | 223° |
| 2026-05-05 14:03 | 39.17896 | 23.50286 | 59 ft | 3 kts | 274° |
| 2026-05-05 14:03 | 39.17901 | 23.50268 | 62 ft | 2 kts | 291° |
| 2026-05-05 14:03 | 39.17905 | 23.50252 | 63 ft | 2 kts | 289° |
| 2026-05-05 14:04 | 39.17906 | 23.50250 | 63 ft | 0 kts | 289° |
| 2026-05-05 14:04 | 39.17910 | 23.50233 | 60 ft | 0 kts | 289° |